sensor_id;sensor_type;location;lat;lon;timestamp;pressure;altitude;pressure_sealevel;temperature;humidity
6829;BME280;17930;48.592;8.868;2023-04-26T00:02:16;96785.88;;;6.50;100.00
6829;BME280;17930;48.592;8.868;2023-04-26T00:04:43;96790.16;;;6.40;100.00
6829;BME280;17930;48.592;8.868;2023-04-26T00:07:10;96785.72;;;6.35;100.00
6829;BME280;17930;48.592;8.868;2023-04-26T00:09:38;96791.63;;;6.31;100.00
6829;BME280;17930;48.592;8.868;2023-04-26T00:12:07;96787.81;;;6.38;100.00
6829;BME280;17930;48.592;8.868;2023-04-26T00:14:36;96799.25;;;6.42;100.00
6829;BME280;17930;48.592;8.868;2023-04-26T00:17:03;96794.38;;;6.46;100.00
6829;BME280;17930;48.592;8.868;2023-04-26T00:19:30;96792.75;;;6.66;100.00
6829;BME280;17930;48.592;8.868;2023-04-26T00:21:56;96790.75;;;6.73;100.00
6829;BME280;17930;48.592;8.868;2023-04-26T00:24:23;96792.03;;;6.70;100.00
6829;BME280;17930;48.592;8.868;2023-04-26T00:26:52;96786.56;;;6.67;100.00
6829;BME280;17930;48.592;8.868;2023-04-26T00:29:20;96785.91;;;6.55;100.00
6829;BME280;17930;48.592;8.868;2023-04-26T00:31:47;96776.53;;;6.49;100.00
6829;BME280;17930;48.592;8.868;2023-04-26T00:34:14;96788.41;;;6.45;100.00
6829;BME280;17930;48.592;8.868;2023-04-26T00:36:41;96783.81;;;6.52;100.00
6829;BME280;17930;48.592;8.868;2023-04-26T00:39:07;96787.88;;;6.43;100.00
6829;BME280;17930;48.592;8.868;2023-04-26T00:41:34;96787.81;;;6.38;100.00
6829;BME280;17930;48.592;8.868;2023-04-26T00:44:01;96790.13;;;6.35;100.00
6829;BME280;17930;48.592;8.868;2023-04-26T00:46:29;96785.19;;;6.33;100.00
6829;BME280;17930;48.592;8.868;2023-04-26T00:48:56;96788.03;;;6.32;100.00
6829;BME280;17930;48.592;8.868;2023-04-26T00:51:23;96791.34;;;6.27;100.00
6829;BME280;17930;48.592;8.868;2023-04-26T00:53:49;96791.34;;;6.27;100.00
6829;BME280;17930;48.592;8.868;2023-04-26T00:56:16;96794.06;;;6.42;100.00
6829;BME280;17930;48.592;8.868;2023-04-26T00:58:44;96789.88;;;6.63;100.00
6829;BME280;17930;48.592;8.868;2023-04-26T01:01:11;96783.81;;;6.52;100.00
6829;BME280;17930;48.592;8.868;2023-04-26T01:03:39;96793.00;;;6.38;100.00
6829;BME280;17930;48.592;8.868;2023-04-26T01:06:06;96787.16;;;6.48;100.00
6829;BME280;17930;48.592;8.868;2023-04-26T01:08:32;96790.66;;;6.63;100.00
6829;BME280;17930;48.592;8.868;2023-04-26T01:10:59;96783.09;;;6.88;100.00
6829;BME280;17930;48.592;8.868;2023-04-26T01:13:26;96785.66;;;6.83;100.00
6829;BME280;17930;48.592;8.868;2023-04-26T01:15:54;96797.03;;;6.82;100.00
6829;BME280;17930;48.592;8.868;2023-04-26T01:18:21;96786.22;;;6.90;100.00
6829;BME280;17930;48.592;8.868;2023-04-26T01:20:49;96784.09;;;6.82;100.00
6829;BME280;17930;48.592;8.868;2023-04-26T01:23:18;96782.47;;;6.71;100.00
6829;BME280;17930;48.592;8.868;2023-04-26T01:25:45;96783.16;;;6.66;100.00
6829;BME280;17930;48.592;8.868;2023-04-26T01:28:11;96777.56;;;6.48;100.00
6829;BME280;17930;48.592;8.868;2023-04-26T01:30:38;96783.63;;;6.32;100.00
6829;BME280;17930;48.592;8.868;2023-04-26T01:33:05;96786.16;;;6.27;100.00
6829;BME280;17930;48.592;8.868;2023-04-26T01:35:31;96784.88;;;6.30;100.00
6829;BME280;17930;48.592;8.868;2023-04-26T01:37:58;96782.84;;;6.58;100.00
6829;BME280;17930;48.592;8.868;2023-04-26T01:40:26;96783.91;;;6.62;100.00
6829;BME280;17930;48.592;8.868;2023-04-26T01:42:53;96793.91;;;6.49;100.00
6829;BME280;17930;48.592;8.868;2023-04-26T01:45:19;96786.47;;;6.31;100.00
6829;BME280;17930;48.592;8.868;2023-04-26T01:47:46;96787.81;;;6.38;100.00
6829;BME280;17930;48.592;8.868;2023-04-26T01:50:13;96782.69;;;6.43;100.00
6829;BME280;17930;48.592;8.868;2023-04-26T01:52:39;96783.22;;;6.45;100.00
6829;BME280;17930;48.592;8.868;2023-04-26T01:55:07;96777.09;;;6.51;100.00
6829;BME280;17930;48.592;8.868;2023-04-26T01:57:35;96764.03;;;6.41;100.00
6829;BME280;17930;48.592;8.868;2023-04-26T02:00:02;96768.13;;;6.11;100.00
6829;BME280;17930;48.592;8.868;2023-04-26T02:02:29;96759.97;;;5.98;100.00
6829;BME280;17930;48.592;8.868;2023-04-26T02:04:55;96771.63;;;5.79;100.00
6829;BME280;17930;48.592;8.868;2023-04-26T02:07:22;96768.16;;;5.73;100.00
6829;BME280;17930;48.592;8.868;2023-04-26T02:09:49;96771.66;;;5.62;100.00
6829;BME280;17930;48.592;8.868;2023-04-26T02:12:16;96778.38;;;5.80;100.00
6829;BME280;17930;48.592;8.868;2023-04-26T02:14:43;96793.22;;;5.68;100.00
6829;BME280;17930;48.592;8.868;2023-04-26T02:17:10;96796.19;;;5.60;100.00
6829;BME280;17930;48.592;8.868;2023-04-26T02:19:37;96801.44;;;5.65;100.00
6829;BME280;17930;48.592;8.868;2023-04-26T02:22:04;96795.78;;;5.68;100.00
6829;BME280;17930;48.592;8.868;2023-04-26T02:24:30;96803.41;;;5.74;100.00
6829;BME280;17930;48.592;8.868;2023-04-26T02:26:57;96799.03;;;5.75;100.00
6829;BME280;17930;48.592;8.868;2023-04-26T02:29:27;96793.44;;;5.66;100.00
6829;BME280;17930;48.592;8.868;2023-04-26T02:31:56;96803.97;;;5.60;100.00
6829;BME280;17930;48.592;8.868;2023-04-26T02:34:23;96803.97;;;5.60;100.00
6829;BME280;17930;48.592;8.868;2023-04-26T02:36:49;96798.31;;;5.63;100.00
6829;BME280;17930;48.592;8.868;2023-04-26T02:39:16;96801.44;;;5.65;100.00
6829;BME280;17930;48.592;8.868;2023-04-26T02:41:43;96809.13;;;5.60;100.00
6829;BME280;17930;48.592;8.868;2023-04-26T02:44:10;96802.84;;;5.56;100.00
6829;BME280;17930;48.592;8.868;2023-04-26T02:46:36;96802.38;;;5.59;100.00
6829;BME280;17930;48.592;8.868;2023-04-26T02:49:04;96795.66;;;5.58;100.00
6829;BME280;17930;48.592;8.868;2023-04-26T02:51:31;96795.06;;;5.51;100.00
6829;BME280;17930;48.592;8.868;2023-04-26T02:53:58;96794.44;;;5.44;100.00
6829;BME280;17930;48.592;8.868;2023-04-26T02:56:25;96792.63;;;5.45;100.00
6829;BME280;17930;48.592;8.868;2023-04-26T02:58:51;96791.75;;;5.39;100.00
6829;BME280;17930;48.592;8.868;2023-04-26T03:01:18;96795.41;;;5.38;100.00
6829;BME280;17930;48.592;8.868;2023-04-26T03:03:44;96797.03;;;5.44;100.00
6829;BME280;17930;48.592;8.868;2023-04-26T03:06:12;96783.88;;;5.67;100.00
6829;BME280;17930;48.592;8.868;2023-04-26T03:08:39;96792.88;;;5.43;100.00
6829;BME280;17930;48.592;8.868;2023-04-26T03:11:06;96792.34;;;5.25;100.00
6829;BME280;17930;48.592;8.868;2023-04-26T03:13:32;96787.03;;;5.15;100.00
6829;BME280;17930;48.592;8.868;2023-04-26T03:15:59;96792.44;;;5.13;100.00
6829;BME280;17930;48.592;8.868;2023-04-26T03:18:25;96788.47;;;5.44;100.00
6829;BME280;17930;48.592;8.868;2023-04-26T03:20:52;96788.94;;;5.41;100.00
6829;BME280;17930;48.592;8.868;2023-04-26T03:23:20;96782.94;;;5.19;100.00
6829;BME280;17930;48.592;8.868;2023-04-26T03:25:48;96785.78;;;5.17;100.00
6829;BME280;17930;48.592;8.868;2023-04-26T03:28:15;96782.41;;;4.84;100.00
6829;BME280;17930;48.592;8.868;2023-04-26T03:30:41;96786.56;;;4.69;100.00
6829;BME280;17930;48.592;8.868;2023-04-26T03:33:08;96784.00;;;4.69;100.00
6829;BME280;17930;48.592;8.868;2023-04-26T03:35:35;96778.63;;;4.59;100.00
6829;BME280;17930;48.592;8.868;2023-04-26T03:38:02;96778.63;;;4.59;100.00
6829;BME280;17930;48.592;8.868;2023-04-26T03:40:30;96780.31;;;4.65;100.00
6829;BME280;17930;48.592;8.868;2023-04-26T03:42:56;96774.25;;;4.76;100.00
6829;BME280;17930;48.592;8.868;2023-04-26T03:45:23;96785.19;;;4.50;100.00
6829;BME280;17930;48.592;8.868;2023-04-26T03:47:51;96786.19;;;4.33;100.00
6829;BME280;17930;48.592;8.868;2023-04-26T03:50:18;96787.31;;;4.37;100.00
6829;BME280;17930;48.592;8.868;2023-04-26T03:52:44;96781.09;;;4.21;100.00
6829;BME280;17930;48.592;8.868;2023-04-26T03:55:11;96781.28;;;3.92;100.00
6829;BME280;17930;48.592;8.868;2023-04-26T03:57:39;96791.22;;;3.72;100.00
6829;BME280;17930;48.592;8.868;2023-04-26T04:00:06;96787.66;;;3.62;100.00
6829;BME280;17930;48.592;8.868;2023-04-26T04:02:36;96784.38;;;3.78;100.00
6829;BME280;17930;48.592;8.868;2023-04-26T04:05:03;96787.28;;;3.70;100.00
6829;BME280;17930;48.592;8.868;2023-04-26T04:07:29;96794.94;;;3.65;100.00
6829;BME280;17930;48.592;8.868;2023-04-26T04:09:57;96793.44;;;3.80;100.00
6829;BME280;17930;48.592;8.868;2023-04-26T04:12:24;96786.00;;;3.95;100.00
6829;BME280;17930;48.592;8.868;2023-04-26T04:14:52;96788.41;;;4.13;100.00
6829;BME280;17930;48.592;8.868;2023-04-26T04:17:19;96790.72;;;4.26;100.00
6829;BME280;17930;48.592;8.868;2023-04-26T04:19:46;96791.59;;;4.31;100.00
6829;BME280;17930;48.592;8.868;2023-04-26T04:22:12;96786.22;;;4.49;100.00
6829;BME280;17930;48.592;8.868;2023-04-26T04:24:39;96789.81;;;4.48;100.00
6829;BME280;17930;48.592;8.868;2023-04-26T04:27:06;96797.00;;;4.46;100.00
6829;BME280;17930;48.592;8.868;2023-04-26T04:29:33;96796.59;;;4.38;100.00
6829;BME280;17930;48.592;8.868;2023-04-26T04:32:01;96789.72;;;4.43;100.00
6829;BME280;17930;48.592;8.868;2023-04-26T04:34:33;96800.38;;;4.47;100.00
6829;BME280;17930;48.592;8.868;2023-04-26T04:37:00;96796.53;;;4.49;100.00
6829;BME280;17930;48.592;8.868;2023-04-26T04:39:28;96800.56;;;4.57;100.00
6829;BME280;17930;48.592;8.868;2023-04-26T04:41:55;96800.22;;;4.53;100.00
6829;BME280;17930;48.592;8.868;2023-04-26T04:44:22;96806.50;;;4.57;100.00
6829;BME280;17930;48.592;8.868;2023-04-26T04:46:51;96801.66;;;4.77;100.00
6829;BME280;17930;48.592;8.868;2023-04-26T04:49:19;96793.69;;;4.95;100.00
6829;BME280;17930;48.592;8.868;2023-04-26T04:51:46;96801.06;;;4.86;100.00
6829;BME280;17930;48.592;8.868;2023-04-26T04:54:13;96800.41;;;4.96;100.00
6829;BME280;17930;48.592;8.868;2023-04-26T04:56:40;96801.81;;;4.87;100.00
6829;BME280;17930;48.592;8.868;2023-04-26T04:59:07;96805.41;;;4.86;100.00
6829;BME280;17930;48.592;8.868;2023-04-26T05:01:34;96806.28;;;4.91;100.00
6829;BME280;17930;48.592;8.868;2023-04-26T05:04:01;96819.38;;;4.85;100.00
6829;BME280;17930;48.592;8.868;2023-04-26T05:06:30;96816.16;;;4.94;100.00
6829;BME280;17930;48.592;8.868;2023-04-26T05:08:57;96806.50;;;5.22;100.00
6829;BME280;17930;48.592;8.868;2023-04-26T05:11:24;96814.75;;;5.36;100.00
6829;BME280;17930;48.592;8.868;2023-04-26T05:13:51;96811.03;;;5.48;100.00
6829;BME280;17930;48.592;8.868;2023-04-26T05:16:17;96812.59;;;5.49;100.00
6829;BME280;17930;48.592;8.868;2023-04-26T05:18:44;96817.28;;;5.52;100.00
6829;BME280;17930;48.592;8.868;2023-04-26T05:21:10;96813.09;;;5.67;100.00
6829;BME280;17930;48.592;8.868;2023-04-26T05:23:38;96816.34;;;5.74;100.00
6829;BME280;17930;48.592;8.868;2023-04-26T05:26:06;96813.34;;;5.82;100.00
6829;BME280;17930;48.592;8.868;2023-04-26T05:28:36;96821.94;;;5.71;100.00
6829;BME280;17930;48.592;8.868;2023-04-26T05:31:03;96829.81;;;5.60;100.00
6829;BME280;17930;48.592;8.868;2023-04-26T05:33:29;96822.88;;;5.82;100.00
6829;BME280;17930;48.592;8.868;2023-04-26T05:35:56;96830.56;;;5.93;100.00
6829;BME280;17930;48.592;8.868;2023-04-26T05:38:24;96830.97;;;6.07;100.00
6829;BME280;17930;48.592;8.868;2023-04-26T05:40:52;96833.44;;;6.18;100.00
6829;BME280;17930;48.592;8.868;2023-04-26T05:43:19;96841.56;;;6.26;100.00
6829;BME280;17930;48.592;8.868;2023-04-26T05:45:55;96836.56;;;6.41;100.00
6829;BME280;17930;48.592;8.868;2023-04-26T05:48:23;96836.41;;;6.79;100.00
6829;BME280;17930;48.592;8.868;2023-04-26T05:50:50;96836.22;;;6.85;100.00
6829;BME280;17930;48.592;8.868;2023-04-26T05:53:20;96832.97;;;7.00;100.00
6829;BME280;17930;48.592;8.868;2023-04-26T05:55:47;96832.41;;;6.93;100.00
6829;BME280;17930;48.592;8.868;2023-04-26T05:58:15;96836.75;;;7.18;100.00
6829;BME280;17930;48.592;8.868;2023-04-26T06:00:41;96835.47;;;7.21;100.00
6829;BME280;17930;48.592;8.868;2023-04-26T06:03:12;96840.03;;;7.40;100.00
6829;BME280;17930;48.592;8.868;2023-04-26T06:05:41;96838.91;;;7.26;100.00
6829;BME280;17930;48.592;8.868;2023-04-26T06:08:08;96848.63;;;7.10;100.00
6829;BME280;17930;48.592;8.868;2023-04-26T06:10:36;96849.63;;;7.40;100.00
6829;BME280;17930;48.592;8.868;2023-04-26T06:13:03;96850.28;;;7.20;100.00
6829;BME280;17930;48.592;8.868;2023-04-26T06:15:31;96854.53;;;7.36;100.00
6829;BME280;17930;48.592;8.868;2023-04-26T06:17:58;96860.88;;;7.50;100.00
6829;BME280;17930;48.592;8.868;2023-04-26T06:20:25;96858.81;;;7.52;100.00
6829;BME280;17930;48.592;8.868;2023-04-26T06:22:52;96854.53;;;7.36;100.00
6829;BME280;17930;48.592;8.868;2023-04-26T06:25:18;96852.78;;;7.88;100.00
6829;BME280;17930;48.592;8.868;2023-04-26T06:27:45;96863.91;;;8.24;100.00
6829;BME280;17930;48.592;8.868;2023-04-26T06:30:12;96857.94;;;8.29;100.00
6829;BME280;17930;48.592;8.868;2023-04-26T06:32:41;96870.94;;;7.83;100.00
6829;BME280;17930;48.592;8.868;2023-04-26T06:35:08;96870.44;;;7.91;100.00
6829;BME280;17930;48.592;8.868;2023-04-26T06:37:35;96873.03;;;7.91;100.00
6829;BME280;17930;48.592;8.868;2023-04-26T06:40:02;96872.63;;;8.69;100.00
6829;BME280;17930;48.592;8.868;2023-04-26T06:42:29;96874.72;;;8.72;100.00
6829;BME280;17930;48.592;8.868;2023-04-26T06:44:56;96866.19;;;9.02;100.00
6829;BME280;17930;48.592;8.868;2023-04-26T06:47:23;96867.22;;;8.91;100.00
6829;BME280;17930;48.592;8.868;2023-04-26T06:49:51;96862.03;;;8.96;100.00
6829;BME280;17930;48.592;8.868;2023-04-26T06:52:18;96858.09;;;8.73;100.00
6829;BME280;17930;48.592;8.868;2023-04-26T06:54:44;96862.66;;;8.37;100.00
6829;BME280;17930;48.592;8.868;2023-04-26T06:57:11;96861.38;;;8.39;100.00
6829;BME280;17930;48.592;8.868;2023-04-26T06:59:38;96851.84;;;8.69;100.00
6829;BME280;17930;48.592;8.868;2023-04-26T07:02:05;96849.78;;;8.76;100.00
6829;BME280;17930;48.592;8.868;2023-04-26T07:04:31;96851.09;;;8.89;100.00
6829;BME280;17930;48.592;8.868;2023-04-26T07:06:59;96853.69;;;9.63;100.00
6829;BME280;17930;48.592;8.868;2023-04-26T07:09:26;96846.09;;;10.64;100.00
6829;BME280;17930;48.592;8.868;2023-04-26T07:11:53;96849.69;;;10.78;100.00
6829;BME280;17930;48.592;8.868;2023-04-26T07:14:19;96845.34;;;12.20;100.00
6829;BME280;17930;48.592;8.868;2023-04-26T07:16:46;96839.34;;;12.79;100.00
6829;BME280;17930;48.592;8.868;2023-04-26T07:19:12;96834.94;;;12.56;100.00
6829;BME280;17930;48.592;8.868;2023-04-26T07:21:39;96829.69;;;12.15;100.00
6829;BME280;17930;48.592;8.868;2023-04-26T07:24:07;96832.38;;;13.11;100.00
6829;BME280;17930;48.592;8.868;2023-04-26T07:26:34;96825.56;;;13.87;100.00
6829;BME280;17930;48.592;8.868;2023-04-26T07:29:01;96830.78;;;13.60;100.00
6829;BME280;17930;48.592;8.868;2023-04-26T07:31:29;96821.66;;;12.71;100.00
6829;BME280;17930;48.592;8.868;2023-04-26T07:33:55;96825.97;;;12.80;100.00
6829;BME280;17930;48.592;8.868;2023-04-26T07:36:22;96821.03;;;13.47;100.00
6829;BME280;17930;48.592;8.868;2023-04-26T07:38:49;96815.84;;;13.74;100.00
6829;BME280;17930;48.592;8.868;2023-04-26T07:41:17;96813.97;;;14.20;100.00
6829;BME280;17930;48.592;8.868;2023-04-26T07:43:43;96818.25;;;14.16;100.00
6829;BME280;17930;48.592;8.868;2023-04-26T07:46:10;96821.72;;;14.51;100.00
6829;BME280;17930;48.592;8.868;2023-04-26T07:48:37;96816.59;;;15.38;100.00
6829;BME280;17930;48.592;8.868;2023-04-26T07:51:06;96816.13;;;15.37;100.00
6829;BME280;17930;48.592;8.868;2023-04-26T07:53:34;96822.13;;;15.15;100.00
6829;BME280;17930;48.592;8.868;2023-04-26T07:56:02;96821.72;;;15.65;99.31
6829;BME280;17930;48.592;8.868;2023-04-26T07:58:30;96821.25;;;15.20;92.11
6829;BME280;17930;48.592;8.868;2023-04-26T08:00:58;96828.56;;;15.23;99.38
6829;BME280;17930;48.592;8.868;2023-04-26T08:03:24;96826.44;;;15.77;91.54
6829;BME280;17930;48.592;8.868;2023-04-26T08:05:52;96835.69;;;15.09;94.71
6829;BME280;17930;48.592;8.868;2023-04-26T08:08:19;96840.75;;;14.43;100.00
6829;BME280;17930;48.592;8.868;2023-04-26T08:10:46;96845.06;;;14.26;100.00
6829;BME280;17930;48.592;8.868;2023-04-26T08:13:13;96838.03;;;14.97;100.00
6829;BME280;17930;48.592;8.868;2023-04-26T08:15:41;96844.75;;;14.54;100.00
6829;BME280;17930;48.592;8.868;2023-04-26T08:18:08;96846.59;;;14.40;100.00
6829;BME280;17930;48.592;8.868;2023-04-26T08:20:35;96850.78;;;13.56;100.00
6829;BME280;17930;48.592;8.868;2023-04-26T08:23:01;96846.22;;;14.47;100.00
6829;BME280;17930;48.592;8.868;2023-04-26T08:25:28;96841.53;;;15.41;100.00
6829;BME280;17930;48.592;8.868;2023-04-26T08:27:54;96838.78;;;15.76;98.02
6829;BME280;17930;48.592;8.868;2023-04-26T08:30:21;96836.81;;;16.12;96.25
6829;BME280;17930;48.592;8.868;2023-04-26T08:32:49;96835.34;;;16.28;90.97
6829;BME280;17930;48.592;8.868;2023-04-26T08:35:16;96837.75;;;15.86;88.02
6829;BME280;17930;48.592;8.868;2023-04-26T08:37:42;96832.84;;;17.37;88.52
6829;BME280;17930;48.592;8.868;2023-04-26T08:40:09;96823.22;;;17.49;82.26
6829;BME280;17930;48.592;8.868;2023-04-26T08:42:38;96827.41;;;17.17;79.52
6829;BME280;17930;48.592;8.868;2023-04-26T08:45:07;96824.16;;;17.20;79.12
6829;BME280;17930;48.592;8.868;2023-04-26T08:47:39;96824.16;;;17.11;78.81
6829;BME280;17930;48.592;8.868;2023-04-26T08:50:12;96828.22;;;17.34;74.80
6829;BME280;17930;48.592;8.868;2023-04-26T08:52:39;96826.75;;;18.24;73.53
6829;BME280;17930;48.592;8.868;2023-04-26T08:55:07;96828.72;;;19.34;74.23
6829;BME280;17930;48.592;8.868;2023-04-26T08:57:35;96829.47;;;17.37;69.93
6829;BME280;17930;48.592;8.868;2023-04-26T09:00:03;96833.34;;;16.03;76.00
6829;BME280;17930;48.592;8.868;2023-04-26T09:02:34;96826.25;;;17.85;73.21
6829;BME280;17930;48.592;8.868;2023-04-26T09:05:01;96829.38;;;17.87;72.45
6829;BME280;17930;48.592;8.868;2023-04-26T09:07:31;96832.09;;;17.37;72.59
6829;BME280;17930;48.592;8.868;2023-04-26T09:09:59;96831.13;;;16.65;72.12
6829;BME280;17930;48.592;8.868;2023-04-26T09:12:26;96842.00;;;15.73;76.59
6829;BME280;17930;48.592;8.868;2023-04-26T09:14:53;96837.97;;;14.88;80.52
6829;BME280;17930;48.592;8.868;2023-04-26T09:17:24;96833.88;;;16.60;80.37
6829;BME280;17930;48.592;8.868;2023-04-26T09:19:51;96843.00;;;15.55;79.31
6829;BME280;17930;48.592;8.868;2023-04-26T09:22:27;96831.81;;;16.41;79.25
6829;BME280;17930;48.592;8.868;2023-04-26T09:24:55;96833.59;;;15.93;78.67
6829;BME280;17930;48.592;8.868;2023-04-26T09:27:31;96830.22;;;15.40;77.73
6829;BME280;17930;48.592;8.868;2023-04-26T09:29:58;96825.09;;;15.36;77.74
6829;BME280;17930;48.592;8.868;2023-04-26T09:32:25;96833.78;;;14.26;79.85
6829;BME280;17930;48.592;8.868;2023-04-26T09:34:53;96833.34;;;14.05;84.37
6829;BME280;17930;48.592;8.868;2023-04-26T09:37:20;96826.69;;;14.39;85.83
6829;BME280;17930;48.592;8.868;2023-04-26T09:39:46;96826.59;;;14.18;84.82
6829;BME280;17930;48.592;8.868;2023-04-26T09:42:16;96829.13;;;14.23;86.49
6829;BME280;17930;48.592;8.868;2023-04-26T09:44:44;96823.53;;;13.84;86.33
6829;BME280;17930;48.592;8.868;2023-04-26T09:47:10;96829.91;;;13.33;89.91
6829;BME280;17930;48.592;8.868;2023-04-26T09:49:45;96829.47;;;13.44;88.85
6829;BME280;17930;48.592;8.868;2023-04-26T09:52:13;96828.47;;;13.72;88.71
6829;BME280;17930;48.592;8.868;2023-04-26T09:54:42;96830.84;;;13.55;87.48
6829;BME280;17930;48.592;8.868;2023-04-26T09:57:09;96825.97;;;12.62;90.41
6829;BME280;17930;48.592;8.868;2023-04-26T09:59:43;96831.41;;;12.47;97.47
6829;BME280;17930;48.592;8.868;2023-04-26T10:02:14;96827.19;;;12.28;100.00
6829;BME280;17930;48.592;8.868;2023-04-26T10:04:45;96830.00;;;12.73;100.00
6829;BME280;17930;48.592;8.868;2023-04-26T10:07:13;96825.44;;;12.83;99.56
6829;BME280;17930;48.592;8.868;2023-04-26T10:09:40;96815.88;;;12.74;100.00
6829;BME280;17930;48.592;8.868;2023-04-26T10:12:08;96814.06;;;12.93;96.64
6829;BME280;17930;48.592;8.868;2023-04-26T10:14:34;96810.88;;;13.73;96.10
6829;BME280;17930;48.592;8.868;2023-04-26T10:17:03;96809.25;;;14.43;88.77
6829;BME280;17930;48.592;8.868;2023-04-26T10:19:32;96805.97;;;14.86;86.82
6829;BME280;17930;48.592;8.868;2023-04-26T10:22:03;96800.09;;;15.03;80.96
6829;BME280;17930;48.592;8.868;2023-04-26T10:24:30;96803.41;;;14.60;81.89
6829;BME280;17930;48.592;8.868;2023-04-26T10:26:57;96790.41;;;15.12;79.67
6829;BME280;17930;48.592;8.868;2023-04-26T10:29:25;96799.03;;;15.78;78.17
6829;BME280;17930;48.592;8.868;2023-04-26T10:32:08;96780.59;;;17.93;76.07
6829;BME280;17930;48.592;8.868;2023-04-26T10:34:41;96773.91;;;19.78;66.58
6829;BME280;17930;48.592;8.868;2023-04-26T10:37:09;96765.16;;;19.98;59.64
6829;BME280;17930;48.592;8.868;2023-04-26T10:39:36;96768.22;;;20.48;54.69
6829;BME280;17930;48.592;8.868;2023-04-26T10:42:16;96771.00;;;19.92;55.63
6829;BME280;17930;48.592;8.868;2023-04-26T10:44:47;96765.22;;;19.78;57.86
6829;BME280;17930;48.592;8.868;2023-04-26T10:47:27;96758.31;;;20.96;57.78
6829;BME280;17930;48.592;8.868;2023-04-26T10:50:02;96750.31;;;21.08;56.52
6829;BME280;17930;48.592;8.868;2023-04-26T10:52:30;96752.03;;;20.13;56.00
6829;BME280;17930;48.592;8.868;2023-04-26T10:54:57;96761.34;;;18.50;54.81
6829;BME280;17930;48.592;8.868;2023-04-26T10:57:46;96760.38;;;19.48;53.13
6829;BME280;17930;48.592;8.868;2023-04-26T11:00:34;96747.97;;;19.16;55.77
6829;BME280;17930;48.592;8.868;2023-04-26T11:03:09;96754.72;;;19.25;54.61
6829;BME280;17930;48.592;8.868;2023-04-26T11:05:40;96767.16;;;18.44;52.96
6829;BME280;17930;48.592;8.868;2023-04-26T11:08:08;96747.81;;;18.31;55.45
6829;BME280;17930;48.592;8.868;2023-04-26T11:10:40;96754.13;;;18.39;54.53
6829;BME280;17930;48.592;8.868;2023-04-26T11:13:07;96746.19;;;18.10;53.85
6829;BME280;17930;48.592;8.868;2023-04-26T11:15:34;96747.03;;;18.31;53.51
6829;BME280;17930;48.592;8.868;2023-04-26T11:18:03;96746.72;;;17.58;52.94
6829;BME280;17930;48.592;8.868;2023-04-26T11:20:32;96753.47;;;16.71;55.94
6829;BME280;17930;48.592;8.868;2023-04-26T11:22:59;96754.91;;;16.13;55.77
6829;BME280;17930;48.592;8.868;2023-04-26T11:25:27;96747.69;;;15.88;58.31
6829;BME280;17930;48.592;8.868;2023-04-26T11:27:58;96737.50;;;16.59;56.07
6829;BME280;17930;48.592;8.868;2023-04-26T11:30:27;96728.78;;;17.18;57.18
6829;BME280;17930;48.592;8.868;2023-04-26T11:32:53;96722.94;;;17.95;58.48
6829;BME280;17930;48.592;8.868;2023-04-26T11:35:20;96724.63;;;18.77;53.55
6829;BME280;17930;48.592;8.868;2023-04-26T11:37:49;96710.38;;;18.70;54.39
6829;BME280;17930;48.592;8.868;2023-04-26T11:40:17;96707.97;;;20.09;51.62
6829;BME280;17930;48.592;8.868;2023-04-26T11:42:44;96700.75;;;21.85;49.22
6829;BME280;17930;48.592;8.868;2023-04-26T11:45:10;96691.56;;;20.94;51.33
6829;BME280;17930;48.592;8.868;2023-04-26T11:47:38;96693.66;;;21.73;49.15
6829;BME280;17930;48.592;8.868;2023-04-26T11:50:06;96692.13;;;22.71;46.91
6829;BME280;17930;48.592;8.868;2023-04-26T11:52:34;96698.56;;;21.71;47.23
6829;BME280;17930;48.592;8.868;2023-04-26T11:55:03;96687.75;;;21.95;46.34
6829;BME280;17930;48.592;8.868;2023-04-26T11:57:30;96683.50;;;20.90;47.86
6829;BME280;17930;48.592;8.868;2023-04-26T12:00:11;96688.50;;;19.46;51.53
6829;BME280;17930;48.592;8.868;2023-04-26T12:02:42;96684.03;;;19.14;52.10
6829;BME280;17930;48.592;8.868;2023-04-26T12:05:10;96685.44;;;18.18;52.15
6829;BME280;17930;48.592;8.868;2023-04-26T12:07:38;96700.09;;;17.16;55.73
6829;BME280;17930;48.592;8.868;2023-04-26T12:10:16;96697.66;;;17.94;57.08
6829;BME280;17930;48.592;8.868;2023-04-26T12:12:46;96689.19;;;18.38;56.94
6829;BME280;17930;48.592;8.868;2023-04-26T12:15:13;96693.78;;;20.41;53.41
6829;BME280;17930;48.592;8.868;2023-04-26T12:17:49;96686.59;;;20.53;52.91
6829;BME280;17930;48.592;8.868;2023-04-26T12:20:17;96683.25;;;22.30;49.88
6829;BME280;17930;48.592;8.868;2023-04-26T12:22:56;96689.59;;;23.79;48.83
6829;BME280;17930;48.592;8.868;2023-04-26T12:25:24;96684.28;;;24.05;47.02
6829;BME280;17930;48.592;8.868;2023-04-26T12:27:51;96681.44;;;24.43;44.56
6829;BME280;17930;48.592;8.868;2023-04-26T12:30:18;96682.84;;;23.85;43.91
6829;BME280;17930;48.592;8.868;2023-04-26T12:32:44;96678.94;;;23.79;45.00
6829;BME280;17930;48.592;8.868;2023-04-26T12:35:11;96677.28;;;23.71;44.50
6829;BME280;17930;48.592;8.868;2023-04-26T12:37:38;96667.19;;;22.79;44.38
6829;BME280;17930;48.592;8.868;2023-04-26T12:40:05;96665.16;;;23.11;44.88
6829;BME280;17930;48.592;8.868;2023-04-26T12:42:34;96657.16;;;21.24;46.05
6829;BME280;17930;48.592;8.868;2023-04-26T12:45:01;96665.41;;;18.90;48.83
6829;BME280;17930;48.592;8.868;2023-04-26T12:47:29;96688.38;;;16.38;54.90
6829;BME280;17930;48.592;8.868;2023-04-26T12:49:55;96679.53;;;16.93;55.69
6829;BME280;17930;48.592;8.868;2023-04-26T12:52:23;96678.06;;;18.64;54.26
6829;BME280;17930;48.592;8.868;2023-04-26T12:54:50;96671.09;;;19.68;53.12
6829;BME280;17930;48.592;8.868;2023-04-26T12:57:16;96681.06;;;19.95;49.84
6829;BME280;17930;48.592;8.868;2023-04-26T12:59:44;96675.44;;;21.14;48.40
6829;BME280;17930;48.592;8.868;2023-04-26T13:02:11;96672.13;;;20.11;47.98
6829;BME280;17930;48.592;8.868;2023-04-26T13:04:38;96670.22;;;18.56;52.83
6829;BME280;17930;48.592;8.868;2023-04-26T13:07:04;96672.44;;;18.34;54.39
6829;BME280;17930;48.592;8.868;2023-04-26T13:09:31;96670.53;;;18.54;54.16
6829;BME280;17930;48.592;8.868;2023-04-26T13:11:58;96670.59;;;19.19;51.71
6829;BME280;17930;48.592;8.868;2023-04-26T13:14:24;96667.03;;;19.71;52.82